Currently 60°F in Wildomar, California, USA
60°F
86°F / 60°F
calm
0.00"
Saturday, June 23, 2018 10:17 PM PDT

Wildomar, California Weather Summary
Last 36 Hours

Temperature Winds Hourly Humidity Dewpoint
Time Report Norm Report Norm Max Gusts Precip. Rpt. Norm Rpt. Norm Pressure
1Sat 10:17 PM  60.4°F  69°F  calm  calm  2 mph  0.00"  82%  62%  55°F  55°F  N/A
Sat 10:00 PM  60.9°F  70°F  1 mph S  1 mph  7 mph  0.00"  81%  60%  55°F  55°F  N/A
Sat 09:00 PM  62.8°F  73°F  1 mph S  1 mph  8 mph  0.00"  77%  54%  55°F  55°F  N/A
Sat 08:00 PM  66.0°F  78°F  4 mph S  1 mph  10 mph  0.00"  69%  45%  55°F  54°F  N/A
Sat 07:00 PM  72.1°F  84°F  5 mph S  4 mph  11 mph  0.00"  58%  34%  56°F  52°F  N/A
Sat 06:00 PM  78.2°F  88°F  4 mph S  5 mph  11 mph  0.00"  48%  28%  56°F  50°F  N/A
Sat 05:00 PM  81.5°F  92°F  7 mph S  6 mph  11 mph  0.00"  43%  23%  56°F  48°F  N/A
Sat 04:00 PM  85.5°F  95°F  5 mph S  6 mph  11 mph  0.00"  38%  21%  56°F  47°F  N/A
2Sat 03:33 PM  86.4°F  95°F  6 mph S  6 mph  11 mph  ----  36%  21%  55°F  47°F  N/A
Sat 03:00 PM  85.5°F  95°F  4 mph S  5 mph  15 mph  0.00"  36%  21%  54°F  47°F  N/A
Sat 02:00 PM  84.9°F  94°F  6 mph S  4 mph  16 mph  0.00"  38%  22%  55°F  48°F  N/A
Sat 01:00 PM  84.8°F  92°F  6 mph S  4 mph  14 mph  0.00"  38%  23%  56°F  48°F  N/A
Sat 12:00 PM  84.0°F  89°F  9 mph S  3 mph  19 mph  0.00"  40%  26%  56°F  48°F  N/A
Sat 11:00 AM  79.6°F  85°F  7 mph S  3 mph  14 mph  0.00"  47%  32%  57°F  51°F  N/A
Sat 10:00 AM  74.1°F  79°F  6 mph S  2 mph  12 mph  0.00"  60%  42%  59°F  53°F  N/A
Sat 09:00 AM  65.4°F  74°F  5 mph S  2 mph  7 mph  0.00"  82%  53%  60°F  55°F  N/A
Sat 08:00 AM  61.2°F  67°F  calm  1 mph  4 mph  0.00"  92%  68%  59°F  56°F  N/A
Sat 07:00 AM  60.5°F  60°F  2 mph S  calm  3 mph  0.00"  93%  81%  58°F  54°F  N/A
Sat 06:00 AM  60.3°F  58°F  calm  calm  none  0.00"  92%  82%  58°F  52°F  N/A
3Sat 05:49 AM  60.1°F  58°F  calm  calm  none  ----  92%  81%  58°F  52°F  N/A
Sat 05:00 AM  60.4°F  58°F  calm  calm  3 mph  0.00"  91%  80%  58°F  52°F  N/A
Sat 04:00 AM  60.3°F  59°F  calm  calm  4 mph  0.00"  91%  78%  57°F  52°F  N/A
Sat 03:00 AM  60.5°F  60°F  1 mph S  calm  5 mph  0.00"  89%  76%  57°F  53°F  N/A
Sat 02:00 AM  60.7°F  62°F  calm  calm  3 mph  0.00"  86%  74%  56°F  53°F  N/A
Sat 01:00 AM  62.6°F  63°F  2 mph S  calm  5 mph  0.00"  84%  72%  57°F  53°F  N/A
Sat 12:00 AM  63.7°F  65°F  calm  calm  4 mph  0.00"  82%  68%  58°F  54°F  N/A
Fri 11:00 PM  64.9°F  67°F  calm  calm  6 mph  0.00"  79%  65%  58°F  54°F  N/A
Fri 10:00 PM  67.9°F  69°F  2 mph S  1 mph  6 mph  0.00"  71%  60%  58°F  54°F  N/A
Fri 09:00 PM  72.4°F  72°F  3 mph S  1 mph  7 mph  0.00"  61%  54%  58°F  54°F  N/A
Fri 08:00 PM  78.3°F  77°F  2 mph S  2 mph  10 mph  0.00"  51%  45%  58°F  54°F  N/A
Fri 07:00 PM  87.7°F  84°F  3 mph S  4 mph  13 mph  0.00"  36%  34%  56°F  52°F  N/A
Fri 06:00 PM  94.4°F  88°F  3 mph S  5 mph  16 mph  0.00"  25%  28%  52°F  50°F  N/A
Fri 05:00 PM  97.1°F  92°F  5 mph S  6 mph  15 mph  0.00"  23%  23%  52°F  47°F  N/A
Fri 04:00 PM  98.2°F  94°F  3 mph S  6 mph  17 mph  0.00"  22%  21%  52°F  47°F  N/A
Fri 03:00 PM  96.5°F  95°F  7 mph S  5 mph  16 mph  0.00"  24%  20%  52°F  47°F  N/A
Fri 02:00 PM  94.9°F  93°F  6 mph S  4 mph  15 mph  0.00"  26%  22%  54°F  48°F  N/A
Fri 01:00 PM  94.1°F  91°F  3 mph S  4 mph  11 mph  0.00"  29%  24%  56°F  48°F  N/A
Fri 12:00 PM  89.0°F  88°F  4 mph S  3 mph  8 mph  0.00"  36%  26%  57°F  48°F  N/A
Fri 11:00 AM  84.7°F  84°F  1 mph S  3 mph  8 mph  0.00"  45%  33%  60°F  50°F  N/A

  1. Current weather data. No green row appears if the current weather data is also the high or low for the current day.
  2. High temperature for the current day.
  3. Low temperature for the current day.

The Wildomar, California weather pages are a service of WeatherCurrents. Wildomar is located southwestern Riverside County, California, north of Murrieta and south of Lake Elsinore.
Copyright ©Sat Jun 23 22:18:03 PDT 2018  WeatherCurrents. All rights reserved. - Submit questions and comments - Privacy Policy

This page automatically refreshes every 10 minutes.